Time;durP1;ratioP1;P1;durP2;ratioP2;P2;SDS_P1;SDS_P2;PMS_P1;PMS_P2;Temp;Humidity;BMP_temperature;BMP_pressure;BME280_temperature;BME280_humidity;BME280_pressure;Samples;Min_cycle;Max_cycle;Signal;HPM_P1;HPM_P2
2021/12/12 00:02:11;;;;;;;139.35;52.83;;;;;;;;;;5012711;28;20062;-86
2021/12/12 00:04:38;;;;;;;143.88;59.03;;;;;;;;;;4983485;28;20050;-85
2021/12/12 00:07:09;;;;;;;127.30;53.90;;;;;;;;;;4980431;28;20037;-86
2021/12/12 00:09:45;;;;;;;123.68;51.25;;;;;;;;;;4995119;28;20064;-86
2021/12/12 00:12:50;;;;;;;105.80;45.95;;;;;;;;;;5001042;28;20045;-84
2021/12/12 00:15:16;;;;;;;138.48;54.85;;;;;;;;;;5011485;28;20057;-85
2021/12/12 00:17:43;;;;;;;123.97;51.97;;;;;;;;;;5009712;28;20045;-85
2021/12/12 00:20:12;;;;;;;127.40;55.35;;;;;;;;;;5023282;28;20048;-86
2021/12/12 00:22:38;;;;;;;120.70;49.97;;;;;;;;;;5031204;28;20132;-86
2021/12/12 00:25:06;;;;;;;119.97;55.22;;;;;;;;;;5011896;28;20458;-85
2021/12/12 00:27:32;;;;;;;127.85;56.60;;;;;;;;;;5026218;28;20049;-84
2021/12/12 00:30:03;;;;;;;137.55;58.50;;;;;;;;;;5030068;28;20178;-85
2021/12/12 00:32:29;;;;;;;126.15;54.03;;;;;;;;;;5031342;28;20121;-85
2021/12/12 00:38:26;;;;;;;119.43;54.75;;;;;;;;;;5032357;28;20052;-85
2021/12/12 00:40:55;;;;;;;118.65;49.22;;;;;;;;;;5030491;28;20042;-85
2021/12/12 00:43:24;;;;;;;111.80;52.92;;;;;;;;;;5039738;28;20110;-85
2021/12/12 00:45:59;;;;;;;114.38;52.70;;;;;;;;;;5030874;28;20049;-85
2021/12/12 00:48:42;;;;;;;124.47;55.13;;;;;;;;;;5023902;28;20041;-86
2021/12/12 00:51:10;;;;;;;111.10;51.22;;;;;;;;;;5025971;28;20042;-84
2021/12/12 00:53:36;;;;;;;123.93;61.85;;;;;;;;;;5028311;28;20041;-85
2021/12/12 00:56:03;;;;;;;114.80;56.38;;;;;;;;;;5010904;28;20577;-86
2021/12/12 00:58:29;;;;;;;115.78;56.08;;;;;;;;;;4993280;28;20494;-86
2021/12/12 01:01:08;;;;;;;121.22;55.13;;;;;;;;;;4998558;28;20190;-85
2021/12/12 01:03:36;;;;;;;110.20;53.70;;;;;;;;;;5035228;28;20092;-84
2021/12/12 01:06:03;;;;;;;122.32;54.38;;;;;;;;;;5054747;28;20045;-85
2021/12/12 01:08:29;;;;;;;123.55;59.25;;;;;;;;;;5043550;28;20029;-85
2021/12/12 01:10:58;;;;;;;116.65;52.67;;;;;;;;;;5053339;28;20072;-85
2021/12/12 01:13:24;;;;;;;112.85;53.75;;;;;;;;;;5036368;28;20829;-85
2021/12/12 01:15:53;;;;;;;107.32;51.25;;;;;;;;;;5033542;28;20045;-85
2021/12/12 01:18:22;;;;;;;112.18;52.67;;;;;;;;;;5039493;28;20033;-84
2021/12/12 01:21:00;;;;;;;102.72;53.70;;;;;;;;;;5023852;28;20117;-86
2021/12/12 01:23:29;;;;;;;117.15;57.40;;;;;;;;;;5022315;28;20564;-85
2021/12/12 01:25:56;;;;;;;120.95;55.35;;;;;;;;;;5025050;28;20060;-86
2021/12/12 01:28:30;;;;;;;114.75;54.72;;;;;;;;;;5027285;28;20037;-87
2021/12/12 01:31:00;;;;;;;118.43;57.25;;;;;;;;;;5024043;28;20045;-87
2021/12/12 01:33:33;;;;;;;114.30;56.13;;;;;;;;;;5021142;28;20062;-87
2021/12/12 01:39:24;;;;;;;117.50;58.20;;;;;;;;;;5020750;28;20117;-87
2021/12/12 01:41:54;;;;;;;131.27;60.90;;;;;;;;;;5036798;28;20074;-88
2021/12/12 01:44:27;;;;;;;134.45;63.47;;;;;;;;;;5018359;28;20057;-86
2021/12/12 01:46:59;;;;;;;113.25;54.40;;;;;;;;;;5024139;28;20037;-86
2021/12/12 01:49:50;;;;;;;129.27;60.92;;;;;;;;;;5035304;28;20041;-86
2021/12/12 01:52:30;;;;;;;111.47;52.35;;;;;;;;;;5028147;28;20077;-86
2021/12/12 01:55:12;;;;;;;126.47;59.80;;;;;;;;;;5032584;28;20041;-88
2021/12/12 01:57:39;;;;;;;139.90;62.55;;;;;;;;;;5027775;28;20045;-88
2021/12/12 02:00:41;;;;;;;118.45;48.95;;;;;;;;;;5005131;28;20509;-86
2021/12/12 02:03:24;;;;;;;120.32;59.63;;;;;;;;;;5008512;28;20065;-86
2021/12/12 02:05:51;;;;;;;144.85;61.00;;;;;;;;;;5021981;28;20045;-88
2021/12/12 02:08:34;;;;;;;130.35;55.08;;;;;;;;;;5040366;28;20060;-87
2021/12/12 02:11:05;;;;;;;122.43;59.03;;;;;;;;;;5023965;28;20516;-88
2021/12/12 02:13:32;;;;;;;126.78;61.75;;;;;;;;;;5032000;28;20134;-87
2021/12/12 02:16:27;;;;;;;131.00;61.38;;;;;;;;;;5004587;28;20041;-88
2021/12/12 02:18:55;;;;;;;;;;;;;;;;;;5001468;28;20049;-87
2021/12/12 02:21:56;;;;;;;129.85;58.13;;;;;;;;;;5032758;28;19928;-88
2021/12/12 02:36:08;;;;;;;125.00;55.25;;;;;;;;;;4987325;28;20052;-87
2021/12/12 02:38:35;;;;;;;148.05;63.30;;;;;;;;;;5011150;28;20464;-86
2021/12/12 02:41:11;;;;;;;130.68;60.90;;;;;;;;;;4991870;28;20054;-86
2021/12/12 02:43:40;;;;;;;141.50;62.70;;;;;;;;;;5005855;28;20042;-86
2021/12/12 02:46:06;;;;;;;131.48;57.30;;;;;;;;;;4988669;28;20042;-86
2021/12/12 02:48:35;;;;;;;122.90;53.15;;;;;;;;;;5012415;28;20041;-86
2021/12/12 02:51:04;;;;;;;120.60;56.35;;;;;;;;;;5000698;28;20104;-86
2021/12/12 02:53:33;;;;;;;115.93;52.97;;;;;;;;;;4975719;28;20742;-86
2021/12/12 02:56:01;;;;;;;127.25;57.60;;;;;;;;;;4961396;28;20101;-86
2021/12/12 03:04:04;;;;;;;130.55;59.05;;;;;;;;;;5481399;23;20058;-86
2021/12/12 03:06:33;;;;;;;131.60;58.60;;;;;;;;;;4950013;28;20058;-88
2021/12/12 03:09:33;;;;;;;110.95;47.35;;;;;;;;;;4976931;28;20039;-86
2021/12/12 03:12:10;;;;;;;126.68;61.13;;;;;;;;;;4969831;28;20490;-85
2021/12/12 03:14:46;;;;;;;121.72;55.25;;;;;;;;;;4968006;28;20039;-86
2021/12/12 03:17:21;;;;;;;97.53;44.63;;;;;;;;;;4964728;28;20145;-86
2021/12/12 03:19:52;;;;;;;130.15;56.15;;;;;;;;;;4968230;28;20399;-87
2021/12/12 03:22:18;;;;;;;110.85;51.53;;;;;;;;;;4952573;28;20149;-86
2021/12/12 03:24:44;;;;;;;124.22;55.15;;;;;;;;;;4968216;28;20058;-86
2021/12/12 03:27:17;;;;;;;107.85;55.40;;;;;;;;;;4967169;28;20042;-87
2021/12/12 03:29:47;;;;;;;103.72;47.53;;;;;;;;;;4969806;28;20050;-86
2021/12/12 03:32:14;;;;;;;123.90;56.38;;;;;;;;;;4983876;28;20411;-86
2021/12/12 03:34:43;;;;;;;110.88;48.80;;;;;;;;;;4951660;28;20467;-86
2021/12/12 03:37:10;;;;;;;128.07;59.45;;;;;;;;;;4968176;28;20450;-86
2021/12/12 03:39:37;;;;;;;117.35;55.70;;;;;;;;;;4969162;28;20074;-86
2021/12/12 03:42:15;;;;;;;122.90;52.63;;;;;;;;;;4948019;28;20058;-87
2021/12/12 03:44:41;;;;;;;107.47;44.70;;;;;;;;;;4964851;28;20081;-86
2021/12/12 03:47:11;;;;;;;111.80;52.55;;;;;;;;;;4967550;28;20494;-86
2021/12/12 03:49:37;;;;;;;103.47;47.85;;;;;;;;;;4950098;28;20035;-85
2021/12/12 03:52:07;;;;;;;111.53;49.55;;;;;;;;;;4968576;28;20058;-83
2021/12/12 03:55:15;;;;;;;111.85;51.35;;;;;;;;;;4964428;28;20402;-86
2021/12/12 03:58:00;;;;;;;96.45;45.67;;;;;;;;;;4948416;28;20039;-86
2021/12/12 04:00:49;;;;;;;99.40;47.75;;;;;;;;;;4963762;28;20099;-86
2021/12/12 04:03:27;;;;;;;114.63;51.22;;;;;;;;;;4966752;28;20198;-86
2021/12/12 04:05:59;;;;;;;70.53;32.97;;;;;;;;;;4963462;28;20039;-87
2021/12/12 04:08:52;;;;;;;109.60;55.90;;;;;;;;;;4966199;28;20054;-86
2021/12/12 04:11:20;;;;;;;98.72;42.22;;;;;;;;;;4960416;28;20529;-86
2021/12/12 04:13:50;;;;;;;92.85;46.42;;;;;;;;;;4950125;23;20631;-86
2021/12/12 04:16:21;;;;;;;106.50;50.20;;;;;;;;;;4955113;28;20525;-87
2021/12/12 04:22:38;;;;;;;92.68;45.13;;;;;;;;;;4954686;28;20038;-86
2021/12/12 04:25:13;;;;;;;95.75;43.55;;;;;;;;;;4956356;28;20051;-87
2021/12/12 04:27:43;;;;;;;83.32;46.80;;;;;;;;;;4959243;28;20070;-86
2021/12/12 04:30:18;;;;;;;76.20;39.45;;;;;;;;;;4956458;28;20145;-87
2021/12/12 04:32:52;;;;;;;85.45;43.75;;;;;;;;;;4948205;28;20075;-86
2021/12/12 04:35:25;;;;;;;83.07;40.17;;;;;;;;;;4954396;28;20402;-86
2021/12/12 04:37:55;;;;;;;96.30;45.67;;;;;;;;;;4952541;28;20051;-86
2021/12/12 04:40:23;;;;;;;89.95;41.63;;;;;;;;;;4951911;28;20050;-87
2021/12/12 04:42:54;;;;;;;66.97;33.70;;;;;;;;;;4953195;28;20055;-86
2021/12/12 04:45:20;;;;;;;89.75;44.58;;;;;;;;;;4956858;28;20780;-86
2021/12/12 04:51:08;;;;;;;74.90;33.85;;;;;;;;;;4960906;28;20090;-86
2021/12/12 04:53:43;;;;;;;85.47;38.53;;;;;;;;;;4932247;28;20086;-88
2021/12/12 04:56:16;;;;;;;101.63;43.58;;;;;;;;;;4949867;28;20129;-86
2021/12/12 04:58:44;;;;;;;97.72;43.40;;;;;;;;;;4933335;29;20388;-88
2021/12/12 05:04:52;;;;;;;70.13;33.75;;;;;;;;;;4950299;28;20095;-88
2021/12/12 05:10:41;;;;;;;77.25;34.42;;;;;;;;;;4930356;29;20070;-87
2021/12/12 05:13:30;;;;;;;77.75;40.10;;;;;;;;;;4932101;28;20097;-88
2021/12/12 05:16:28;;;;;;;65.55;35.17;;;;;;;;;;4953610;28;20089;-88
2021/12/12 05:19:23;;;;;;;64.03;36.05;;;;;;;;;;4967818;28;20648;-87
2021/12/12 05:22:01;;;;;;;;;;;;;;;;;;4969585;28;20645;-88
2021/12/12 05:24:29;;;;;;;60.45;29.40;;;;;;;;;;4964768;28;20016;-87
2021/12/12 05:27:02;;;;;;;43.67;26.83;;;;;;;;;;4953399;28;20054;-88
2021/12/12 05:29:40;;;;;;;44.47;25.30;;;;;;;;;;4946109;28;20085;-87
2021/12/12 05:32:10;;;;;;;26.70;16.83;;;;;;;;;;4965671;28;20045;-87
2021/12/12 05:34:39;;;;;;;33.85;21.70;;;;;;;;;;4974517;28;20039;-87
2021/12/12 05:37:06;;;;;;;36.15;26.45;;;;;;;;;;4966421;28;20050;-87
2021/12/12 05:39:33;;;;;;;35.70;21.55;;;;;;;;;;4949303;28;20042;-87
2021/12/12 05:42:36;;;;;;;38.25;24.05;;;;;;;;;;4965110;28;20050;-89
2021/12/12 05:45:22;;;;;;;32.97;19.33;;;;;;;;;;4951138;28;20047;-89
2021/12/12 05:51:11;;;;;;;40.83;25.50;;;;;;;;;;4967278;28;20118;-87
2021/12/12 05:53:37;;;;;;;29.65;18.95;;;;;;;;;;4963866;28;20074;-87
2021/12/12 05:56:04;;;;;;;35.83;23.60;;;;;;;;;;4958467;28;20050;-87
2021/12/12 05:58:34;;;;;;;33.78;20.52;;;;;;;;;;4967489;28;20447;-90
2021/12/12 06:01:03;;;;;;;39.40;22.83;;;;;;;;;;4948099;28;20053;-88
2021/12/12 06:03:33;;;;;;;34.97;24.65;;;;;;;;;;4968881;28;20061;-90
2021/12/12 06:15:30;;;;;;;39.92;24.42;;;;;;;;;;4987976;28;20054;-87
2021/12/12 06:18:09;;;;;;;25.23;16.42;;;;;;;;;;4990078;28;20101;-87
2021/12/12 06:20:41;;;;;;;35.97;22.08;;;;;;;;;;5005258;28;20513;-88
2021/12/12 06:23:09;;;;;;;32.90;20.83;;;;;;;;;;4982826;28;20495;-88
2021/12/12 06:25:48;;;;;;;32.25;20.55;;;;;;;;;;4989882;28;20054;-88
2021/12/12 06:28:20;;;;;;;37.25;25.35;;;;;;;;;;4997186;28;20046;-88
2021/12/12 06:30:46;;;;;;;30.40;21.75;;;;;;;;;;5003006;28;20043;-87
2021/12/12 06:33:28;;;;;;;39.22;24.67;;;;;;;;;;5010292;28;20050;-88
2021/12/12 06:36:13;;;;;;;34.95;18.30;;;;;;;;;;4979110;28;20053;-88
2021/12/12 06:38:41;;;;;;;27.35;18.90;;;;;;;;;;4988021;28;20042;-88
2021/12/12 06:41:08;;;;;;;32.67;18.70;;;;;;;;;;4987570;28;20038;-88
2021/12/12 06:43:37;;;;;;;32.70;21.40;;;;;;;;;;4989951;28;20042;-88
2021/12/12 06:46:05;;;;;;;32.13;18.70;;;;;;;;;;4981093;28;20054;-87
2021/12/12 06:48:31;;;;;;;28.15;19.05;;;;;;;;;;4999434;28;20120;-86
2021/12/12 06:51:10;;;;;;;23.58;15.80;;;;;;;;;;5002511;28;20521;-88
2021/12/12 06:57:01;;;;;;;26.17;19.33;;;;;;;;;;5018244;23;20140;-88
2021/12/12 06:59:29;;;;;;;33.33;19.95;;;;;;;;;;5020151;28;20065;-87
2021/12/12 07:01:55;;;;;;;37.05;21.98;;;;;;;;;;4995505;28;20096;-89
2021/12/12 07:05:01;;;;;;;39.88;21.95;;;;;;;;;;4967119;28;20051;-88
2021/12/12 07:20:16;;;;;;;41.83;22.52;;;;;;;;;;5169784;23;20065;-88
2021/12/12 07:22:48;;;;;;;44.00;25.65;;;;;;;;;;4972620;28;20495;-88
2021/12/12 07:25:15;;;;;;;38.35;20.38;;;;;;;;;;4984287;28;20050;-88
2021/12/12 07:27:44;;;;;;;39.17;23.05;;;;;;;;;;4968669;28;20067;-88
2021/12/12 07:30:29;;;;;;;31.40;17.67;;;;;;;;;;4958255;28;20073;-88
2021/12/12 07:32:56;;;;;;;43.45;23.80;;;;;;;;;;4952469;28;20051;-88
2021/12/12 07:35:47;;;;;;;45.10;24.73;;;;;;;;;;4954833;28;20031;-88
2021/12/12 07:41:33;;;;;;;31.15;17.75;;;;;;;;;;4991580;28;20046;-87
2021/12/12 07:50:57;;;;;;;49.35;24.65;;;;;;;;;;4977410;28;20124;-89
2021/12/12 07:53:34;;;;;;;52.33;26.27;;;;;;;;;;4997058;28;20042;-89
2021/12/12 07:56:01;;;;;;;51.53;23.13;;;;;;;;;;4972642;28;20058;-89
2021/12/12 07:58:49;;;;;;;44.72;21.60;;;;;;;;;;4958248;28;20035;-89
2021/12/12 08:04:00;;;;;;;59.00;27.40;;;;;;;;;;5090741;23;20117;-88
2021/12/12 08:06:31;;;;;;;60.08;26.65;;;;;;;;;;4955754;28;20090;-87
2021/12/12 08:09:08;;;;;;;67.75;30.95;;;;;;;;;;4961167;28;20035;-88
2021/12/12 08:11:34;;;;;;;58.83;27.42;;;;;;;;;;4958852;29;20067;-89
2021/12/12 08:14:05;;;;;;;67.68;30.20;;;;;;;;;;4921748;29;20074;-88
2021/12/12 08:16:32;;;;;;;64.53;29.42;;;;;;;;;;4957041;28;20053;-89
2021/12/12 08:19:11;;;;;;;66.38;29.33;;;;;;;;;;4954710;28;20051;-88
2021/12/12 08:24:52;;;;;;;69.00;28.02;;;;;;;;;;4936816;29;20082;-89
2021/12/12 08:34:37;;;;;;;68.82;30.48;;;;;;;;;;4946963;29;20043;-87
2021/12/12 08:40:57;;;;;;;62.92;27.45;;;;;;;;;;4933939;29;20523;-90
2021/12/12 08:43:27;;;;;;;63.65;29.98;;;;;;;;;;4911992;29;20086;-89
2021/12/12 08:45:58;;;;;;;65.70;28.05;;;;;;;;;;4913666;29;20043;-89
2021/12/12 08:48:45;;;;;;;79.63;33.67;;;;;;;;;;4927743;29;20107;-90
2021/12/12 08:51:32;;;;;;;;;;;;;;;;;;;;;
2021/12/12 08:54:54;;;;;;;76.18;29.70;;;;;;;;;;4930146;29;20042;-90
2021/12/12 08:57:41;;;;;;;38.88;18.88;;;;;;;;;;4927223;29;20072;-88
2021/12/12 09:02:58;;;;;;;57.70;25.30;;;;;;;;;;5004058;23;20058;-88
2021/12/12 09:05:44;;;;;;;53.22;22.60;;;;;;;;;;4984190;28;20120;-90
2021/12/12 09:22:25;;;;;;;60.90;24.80;;;;;;;;;;4929137;29;20043;-89
2021/12/12 09:24:58;;;;;;;72.55;27.77;;;;;;;;;;4928457;29;20497;-91
2021/12/12 09:35:13;;;;;;;57.83;22.75;;;;;;;;;;4911508;29;20099;-88
2021/12/12 09:45:16;;;;;;;87.18;31.50;;;;;;;;;;4917848;28;20154;-91
2021/12/12 09:51:16;;;;;;;95.85;31.95;;;;;;;;;;4976611;28;20487;-91
2021/12/12 09:53:58;;;;;;;90.88;29.85;;;;;;;;;;4963994;28;20074;-87
2021/12/12 09:59:48;;;;;;;86.15;28.67;;;;;;;;;;4980982;28;20396;-90
2021/12/12 10:02:22;;;;;;;112.63;36.58;;;;;;;;;;4977062;28;20043;-85
2021/12/12 10:05:20;;;;;;;98.28;32.97;;;;;;;;;;4973761;28;20039;-87
2021/12/12 10:07:52;;;;;;;81.43;25.45;;;;;;;;;;4970767;28;20055;-88
2021/12/12 10:10:35;;;;;;;118.68;36.53;;;;;;;;;;4974363;28;20220;-87
2021/12/12 10:13:19;;;;;;;93.68;28.92;;;;;;;;;;4973422;28;20047;-89
2021/12/12 10:15:50;;;;;;;107.05;35.47;;;;;;;;;;4971157;28;20488;-90
2021/12/12 10:18:37;;;;;;;121.05;35.90;;;;;;;;;;4978274;28;20050;-89
2021/12/12 10:21:13;;;;;;;82.55;24.92;;;;;;;;;;4964145;28;20426;-88
2021/12/12 10:23:49;;;;;;;121.53;37.95;;;;;;;;;;4964376;28;20043;-90
2021/12/12 10:26:17;;;;;;;125.75;37.15;;;;;;;;;;4960952;28;20050;-89
2021/12/12 10:28:49;;;;;;;149.32;41.50;;;;;;;;;;4983120;28;20133;-88
2021/12/12 10:31:42;;;;;;;136.40;36.92;;;;;;;;;;4978561;28;20126;-88
2021/12/12 10:35:05;;;;;;;143.05;39.28;;;;;;;;;;4903851;29;20267;-89
2021/12/12 10:37:36;;;;;;;161.00;42.40;;;;;;;;;;4888458;29;20664;-87
2021/12/12 10:40:12;;;;;;;149.52;40.70;;;;;;;;;;4943407;28;20113;-88
2021/12/12 10:42:43;;;;;;;148.73;39.13;;;;;;;;;;4981437;28;20050;-90
2021/12/12 10:45:11;;;;;;;146.95;39.70;;;;;;;;;;4976696;28;20046;-89
2021/12/12 10:47:57;;;;;;;170.52;44.38;;;;;;;;;;4964432;28;20090;-88
2021/12/12 10:50:30;;;;;;;144.27;41.95;;;;;;;;;;4979039;28;20402;-89
2021/12/12 10:53:03;;;;;;;189.07;46.50;;;;;;;;;;4976811;28;20042;-88
2021/12/12 10:55:53;;;;;;;;;;;;;;;;;;;;;
2021/12/12 10:58:46;;;;;;;184.65;45.85;;;;;;;;;;4972192;28;20083;-89
2021/12/12 11:01:18;;;;;;;171.70;41.42;;;;;;;;;;4969260;28;20426;-89
2021/12/12 11:04:18;;;;;;;189.40;47.45;;;;;;;;;;4985796;28;20034;-90
2021/12/12 11:07:18;;;;;;;182.45;37.72;;;;;;;;;;4981735;28;20052;-89
2021/12/12 11:09:54;;;;;;;170.02;39.90;;;;;;;;;;4977705;28;20056;-88
2021/12/12 11:16:19;;;;;;;216.48;50.13;;;;;;;;;;4956923;28;20046;-88
2021/12/12 11:19:09;;;;;;;201.93;43.78;;;;;;;;;;4930101;28;20039;-89
2021/12/12 11:21:53;;;;;;;202.77;47.00;;;;;;;;;;4961910;28;20130;-90
2021/12/12 11:24:34;;;;;;;185.13;42.83;;;;;;;;;;4947295;28;20422;-89
2021/12/12 11:27:27;;;;;;;147.35;40.80;;;;;;;;;;4974419;28;20145;-87
2021/12/12 11:30:26;;;;;;;182.43;45.20;;;;;;;;;;4975809;28;20133;-89
2021/12/12 11:32:53;;;;;;;164.35;41.55;;;;;;;;;;4953518;28;20058;-90
2021/12/12 11:35:21;;;;;;;163.75;44.67;;;;;;;;;;4978285;28;20054;-91
2021/12/12 11:41:36;;;;;;;154.70;43.72;;;;;;;;;;4926343;29;20071;-89
2021/12/12 11:44:36;;;;;;;143.32;41.65;;;;;;;;;;4872424;29;20108;-90
2021/12/12 11:47:30;;;;;;;160.95;42.10;;;;;;;;;;4893634;29;20057;-91
2021/12/12 11:50:12;;;;;;;125.70;35.10;;;;;;;;;;4872445;29;20372;-89
2021/12/12 11:59:41;;;;;;;130.45;37.45;;;;;;;;;;4874565;29;20056;-88
2021/12/12 12:19:07;;;;;;;119.82;38.72;;;;;;;;;;4858555;29;20065;-88
2021/12/12 12:47:33;;;;;;;112.70;34.75;;;;;;;;;;4979159;28;20052;-89
2021/12/12 12:50:23;;;;;;;123.13;35.53;;;;;;;;;;4981434;28;20046;-87
2021/12/12 12:53:09;;;;;;;110.05;35.28;;;;;;;;;;4919508;28;20077;-89
2021/12/12 12:55:41;;;;;;;112.93;35.03;;;;;;;;;;4975880;28;20077;-90
2021/12/12 12:58:41;;;;;;;127.20;35.75;;;;;;;;;;4960635;28;20184;-89
2021/12/12 13:01:29;;;;;;;141.70;38.65;;;;;;;;;;4977901;28;20046;-87
2021/12/12 13:04:14;;;;;;;136.63;38.15;;;;;;;;;;4975072;28;20062;-89
2021/12/12 13:07:14;;;;;;;132.65;38.92;;;;;;;;;;4953737;28;20136;-88
2021/12/12 13:09:53;;;;;;;142.57;40.15;;;;;;;;;;4976343;28;20116;-87
2021/12/12 13:12:32;;;;;;;127.63;38.83;;;;;;;;;;4961627;28;20560;-89
2021/12/12 13:15:32;;;;;;;125.15;37.75;;;;;;;;;;4941941;28;20069;-87
2021/12/12 13:18:42;;;;;;;120.38;38.83;;;9.40;99.90;;;;;;4961553;28;20053;-88
2021/12/12 13:21:37;;;;;;;98.57;33.40;;;;;;;;;;4961488;28;20092;-85
2021/12/12 13:24:21;;;;;;;103.20;34.13;;;;;;;;;;4958064;28;20042;-88
2021/12/12 13:30:13;;;;;;;90.07;29.98;;;;;;;;;;4977506;28;20054;-88
2021/12/12 13:32:39;;;;;;;83.53;27.10;;;;;;;;;;4978618;28;20053;-87
2021/12/12 13:38:09;;;;;;;92.43;27.20;;;;;;;;;;4977988;28;20826;-88
2021/12/12 13:41:04;;;;;;;88.75;28.65;;;;;;;;;;4978696;28;20086;-87
2021/12/12 13:43:38;;;;;;;101.88;32.60;;;;;;;;;;4976837;28;20574;-89
2021/12/12 13:46:34;;;;;;;91.90;29.52;;;;;;;;;;4972854;28;20053;-88
2021/12/12 13:49:21;;;;;;;95.03;30.50;;;;;;;;;;4975167;28;20131;-88
2021/12/12 13:52:00;;;;;;;95.38;28.17;;;;;;;;;;4979166;28;20049;-88
2021/12/12 13:54:39;;;;;;;95.05;27.98;;;;;;;;;;4963215;28;20549;-88
2021/12/12 13:57:05;;;;;;;111.45;31.50;;;;;;;;;;4973945;28;20339;-88
2021/12/12 13:59:34;;;;;;;98.97;28.98;;;;;;;;;;4955805;28;20077;-88
2021/12/12 14:02:03;;;;;;;119.45;32.65;;;;;;;;;;4972779;28;20450;-89
2021/12/12 14:04:48;;;;;;;95.25;30.15;;;;;;;;;;4974509;28;20039;-89
2021/12/12 14:07:16;;;;;;;116.97;31.40;;;;;;;;;;4977798;28;20425;-89
2021/12/12 14:09:44;;;;;;;117.28;30.25;;;;;;;;;;4975897;28;20064;-89
2021/12/12 14:12:11;;;;;;;100.47;29.10;;;;;;;;;;4960813;28;20073;-87
2021/12/12 14:14:37;;;;;;;101.03;27.20;;;;;;;;;;4955429;28;20162;-88
2021/12/12 14:17:08;;;;;;;105.10;28.45;;;;;;;;;;4985982;28;20056;-86
2021/12/12 14:19:37;;;;;;;108.53;28.63;;;;;;;;;;4980666;28;20035;-86
2021/12/12 14:22:04;;;;;;;107.00;28.42;;;;;;;;;;4970558;28;20047;-86
2021/12/12 14:24:31;;;;;;;93.35;26.05;;;;;;;;;;4947103;28;20035;-87
2021/12/12 14:27:16;;;;;;;92.50;28.30;;;;;;;;;;4973842;28;20070;-87
2021/12/12 14:29:47;;;;;;;97.03;30.58;;;;;;;;;;4958118;28;20064;-86
2021/12/12 14:32:26;;;;;;;94.57;28.48;;;;;;;;;;4969882;28;20038;-87
2021/12/12 14:35:01;;;;;;;95.80;29.20;;;;;;;;;;4974851;28;20510;-87
2021/12/12 14:37:41;;;;;;;100.97;29.95;;;;;;;;;;4992263;28;20046;-85
2021/12/12 14:40:35;;;;;;;123.63;32.92;;;;;;;;;;4976559;28;20046;-86
2021/12/12 14:43:10;;;;;;;111.40;29.40;;;;;;;;;;4980408;28;20041;-87
2021/12/12 14:45:42;;;;;;;112.57;29.50;;;;;;;;;;4971148;28;20145;-88
2021/12/12 14:48:14;;;;;;;97.95;28.52;;;;;;;;;;4960423;28;20494;-88
2021/12/12 14:50:48;;;;;;;105.45;29.83;;;;;;;;;;4956994;28;20038;-87
2021/12/12 14:53:19;;;;;;;111.70;30.35;;;;;;;;;;4966881;28;20053;-88
2021/12/12 14:56:01;;;;;;;;;;;;;;;;;;;;;
2021/12/12 14:58:51;;;;;;;111.70;31.38;;;;;;;;;;4981507;28;20054;-86
2021/12/12 15:01:27;;;;;;;105.90;30.50;;;;;;;;;;4978210;28;20069;-87
2021/12/12 15:03:55;;;;;;;97.63;29.00;;;;;;;;;;4977397;28;20050;-88
2021/12/12 15:06:33;;;;;;;116.65;33.08;;;;;;;;;;4973467;28;20133;-87
2021/12/12 15:09:07;;;;;;;117.82;32.38;;;;;;;;;;4987954;28;20045;-88
2021/12/12 15:11:38;;;;;;;99.38;30.52;;;;;;;;;;4988636;28;20098;-87
2021/12/12 15:14:11;;;;;;;110.15;31.95;;;;;;;;;;4993598;28;20042;-85
2021/12/12 15:16:38;;;;;;;132.40;32.95;;;;;;;;;;4983781;28;20445;-85
2021/12/12 15:19:15;;;;;;;132.32;35.38;;;;;;;;;;4986312;28;20157;-86
2021/12/12 15:21:59;;;;;;;127.22;32.80;;;;;;;;;;4994089;28;20042;-85
2021/12/12 15:24:27;;;;;;;144.30;35.00;;;;;;;;;;4981887;28;20055;-86
2021/12/12 15:26:58;;;;;;;138.48;31.88;;;;;;;;;;4973562;28;20042;-86
2021/12/12 15:29:26;;;;;;;144.35;33.95;;;;;;;;;;4979756;28;20498;-85
2021/12/12 15:31:54;;;;;;;116.22;31.00;;;;;;;;;;4958217;28;20052;-86
2021/12/12 15:34:23;;;;;;;124.13;31.90;;;;;;;;;;4973396;28;20047;-87
2021/12/12 15:36:58;;;;;;;111.95;30.23;;;;;;;;;;4973370;28;20419;-87
2021/12/12 15:39:45;;;;;;;108.35;30.05;;;;;;;;;;4974221;28;20050;-85
2021/12/12 15:42:12;;;;;;;489.23;209.02;;;;;;;;;;4973538;28;20050;-86
2021/12/12 15:44:47;;;;;;;160.00;43.47;;;;;;;;;;4975961;28;20076;-86
2021/12/12 15:47:20;;;;;;;124.43;35.20;;;;;;;;;;4960488;28;20141;-86
2021/12/12 15:49:51;;;;;;;138.68;35.15;;;;;;;;;;4974002;28;20512;-86
2021/12/12 15:52:30;;;;;;;123.30;34.88;;;;;;;;;;4975973;28;20065;-86
2021/12/12 15:54:58;;;;;;;119.05;32.28;;;;;;;;;;4969224;28;20050;-86
2021/12/12 15:57:29;;;;;;;134.55;34.80;;;;;;;;;;4979252;28;20070;-86
2021/12/12 16:00:00;;;;;;;108.20;27.83;;;;;;;;;;4971129;28;20542;-87
2021/12/12 16:02:32;;;;;;;113.57;32.35;;;;;;;;;;4961244;28;20147;-87
2021/12/12 16:04:59;;;;;;;113.55;29.77;;;;;;;;;;4961412;28;20062;-87
2021/12/12 16:07:26;;;;;;;123.95;32.80;;;;;;;;;;4974983;28;20049;-87
2021/12/12 16:09:57;;;;;;;119.88;31.92;;;;;;;;;;4965262;28;20054;-87
2021/12/12 16:12:24;;;;;;;142.07;32.38;;;;;;;;;;4970435;28;20622;-87
2021/12/12 16:14:58;;;;;;;134.82;35.70;;;;;;;;;;4975574;28;20129;-86
2021/12/12 16:17:28;;;;;;;128.02;35.38;;;;;;;;;;4974741;28;20122;-86
2021/12/12 16:19:56;;;;;;;159.32;35.30;;;;;;;;;;4977199;28;20046;-86
2021/12/12 16:22:24;;;;;;;149.63;35.45;;;;;;;;;;4980712;28;20049;-88
2021/12/12 16:24:51;;;;;;;134.60;30.20;;;;;;;;;;5000691;28;20054;-86
2021/12/12 16:27:18;;;;;;;142.98;33.42;;;;;;;;;;4998605;28;20041;-87
2021/12/12 16:29:49;;;;;;;140.50;32.03;;;;;;;;;;4985316;28;20050;-85
2021/12/12 16:32:18;;;;;;;134.77;30.33;;;;;;;;;;4984881;28;20061;-85
2021/12/12 16:34:49;;;;;;;147.32;32.53;;;;;;;;;;4966913;28;20510;-85
2021/12/12 16:37:24;;;;;;;171.50;34.78;;;;;;;;;;4977655;28;20046;-85
2021/12/12 16:40:06;;;;;;;143.43;33.50;;;;;;;;;;4979972;28;20043;-85
2021/12/12 16:42:57;;;;;;;147.65;31.90;;;;;;;;;;4964843;28;20505;-85
2021/12/12 16:45:36;;;;;;;143.70;35.83;;;;;;;;;;4930794;29;20058;-85
2021/12/12 16:48:12;;;;;;;151.85;33.67;;;;;;;;;;4975892;28;20578;-86
2021/12/12 16:50:58;;;;;;;168.25;35.42;;;;;;;;;;4977991;28;20455;-84
2021/12/12 16:53:36;;;;;;;170.82;36.20;;;;;;;;;;4977664;28;20108;-84
2021/12/12 16:56:04;;;;;;;179.45;37.03;;;;;;;;;;4979368;28;20578;-84
2021/12/12 16:58:32;;;;;;;151.15;35.08;;;;;;;;;;4974936;28;20622;-85
2021/12/12 17:01:04;;;;;;;188.55;36.30;;;;;;;;;;4976027;28;20046;-84
2021/12/12 17:03:39;;;;;;;160.65;32.92;;;;;;;;;;4977030;28;20538;-84
2021/12/12 17:06:13;;;;;;;263.58;38.13;;;;;;;;;;4963757;28;20056;-84
2021/12/12 17:11:25;;;;;;;173.65;34.20;;;;;;;;;;4973638;28;20038;-85
2021/12/12 17:13:52;;;;;;;1999.90;922.15;;;;;;;;;;4957758;28;20140;-85
2021/12/12 17:16:32;;;;;;;1999.90;943.92;;;;;;;;;;4962785;28;20054;-86
2021/12/12 17:19:02;;;;;;;324.75;68.55;;;;;;;;;;4978397;28;20518;-84
2021/12/12 17:21:31;;;;;;;194.05;39.33;;;;;;;;;;4975327;28;20063;-85
2021/12/12 17:24:04;;;;;;;196.75;38.88;;;;;;;;;;4960750;28;20097;-84
2021/12/12 17:26:32;;;;;;;192.48;38.10;;;;;;;;;;4976953;28;20557;-85
2021/12/12 17:28:59;;;;;;;161.27;34.95;;;;;;;;;;4977900;28;20050;-84
2021/12/12 17:31:36;;;;;;;189.70;36.92;;;;;;;;;;4970462;28;20050;-85
2021/12/12 17:34:10;;;;;;;193.68;36.00;;;;;;;;;;4979262;28;20046;-86
2021/12/12 17:36:36;;;;;;;;;;;;;;;;;;4965783;28;20090;-85
2021/12/12 17:39:04;;;;;;;165.88;34.67;;;;;;;;;;4963623;28;20401;-86
2021/12/12 17:41:47;;;;;;;184.10;37.00;;;;;;;;;;4978177;28;20057;-84
2021/12/12 17:44:19;;;;;;;146.50;29.75;;;;;;;;;;4977891;28;20056;-84
2021/12/12 17:46:57;;;;;;;143.55;32.30;;;;;;;;;;4969670;28;20058;-84
2021/12/12 17:49:42;;;;;;;134.52;29.98;;;;;;;;;;4972544;28;20057;-83
2021/12/12 17:52:27;;;;;;;119.72;30.60;;;;;;;;;;4974209;28;20986;-84
2021/12/12 17:55:19;;;;;;;140.52;31.50;;;;;;;;;;4970576;28;20082;-83
2021/12/12 17:57:48;;;;;;;;;;;;;;;;;;4975928;28;20137;-84
2021/12/12 18:00:21;;;;;;;300.15;77.40;;;;;;;;;;4978520;28;19926;-84
2021/12/12 18:02:48;;;;;;;173.00;35.80;;;;;;;;;;4974000;28;20176;-85
2021/12/12 18:05:19;;;;;;;164.07;33.22;;;;;;;;;;4970728;28;20431;-84
2021/12/12 18:07:55;;;;;;;153.68;30.92;;;;;;;;;;4978141;28;20396;-86
2021/12/12 18:10:35;;;;;;;157.07;29.90;;;;;;;;;;4984025;28;20440;-86
2021/12/12 18:13:03;;;;;;;186.52;34.72;;;;;;;;;;4963443;28;20050;-85
2021/12/12 18:15:30;;;;;;;207.30;36.92;;;;;;;;;;4987351;28;20459;-84
2021/12/12 18:18:21;;;;;;;181.02;37.63;;;;;;;;;;4984029;28;20046;-89
2021/12/12 18:20:55;;;;;;;196.43;36.55;;;;;;;;;;4984009;28;20069;-87